createdAt,value
2019-02-14T00:00:12.694Z,1022.76
2019-02-14T00:01:12.700Z,1022.75
2019-02-14T00:02:12.671Z,1022.79
2019-02-14T00:03:12.657Z,1022.81
2019-02-14T00:04:12.646Z,1022.79
2019-02-14T00:05:16.552Z,1022.78
2019-02-14T00:06:12.643Z,1022.80
2019-02-14T00:07:12.612Z,1022.80
2019-02-14T00:08:12.597Z,1022.87
2019-02-14T00:09:12.585Z,1022.84
2019-02-14T00:10:12.603Z,1022.93
2019-02-14T00:11:12.581Z,1022.95
2019-02-14T00:12:12.549Z,1022.93
2019-02-14T00:13:12.537Z,1022.96
2019-02-14T00:14:12.528Z,1022.99
2019-02-14T00:15:12.548Z,1022.92
2019-02-14T00:16:12.529Z,1022.85
2019-02-14T00:17:12.490Z,1022.91
2019-02-14T00:18:12.476Z,1022.84
2019-02-14T00:19:12.471Z,1022.89
2019-02-14T00:20:12.453Z,1022.88
2019-02-14T00:21:12.444Z,1022.90
2019-02-14T00:22:12.448Z,1022.89
2019-02-14T00:23:12.429Z,1022.92
2019-02-14T00:24:12.406Z,1022.88
2019-02-14T00:25:12.394Z,1022.92
2019-02-14T00:26:12.388Z,1022.94
2019-02-14T00:27:12.399Z,1022.83
2019-02-14T00:28:12.360Z,1022.95
2019-02-14T00:29:12.352Z,1022.85
2019-02-14T00:30:12.336Z,1022.86
2019-02-14T00:31:12.330Z,1022.84
2019-02-14T00:32:12.334Z,1022.81
2019-02-14T00:33:12.307Z,1022.84
2019-02-14T00:34:12.290Z,1022.84
2019-02-14T00:35:12.279Z,1022.81
2019-02-14T00:36:12.268Z,1022.86
2019-02-14T00:37:12.279Z,1022.85
2019-02-14T00:38:12.244Z,1022.91
2019-02-14T00:39:12.237Z,1022.95
2019-02-14T00:40:12.226Z,1022.98
2019-02-14T00:41:12.211Z,1023.01
2019-02-14T00:42:12.216Z,1023.03
2019-02-14T00:43:12.251Z,1023.03
2019-02-14T00:44:12.206Z,1023.03
2019-02-14T00:45:12.162Z,1023.03
2019-02-14T00:46:12.150Z,1023.06
2019-02-14T00:47:12.162Z,1023.05
2019-02-14T00:48:12.129Z,1023.00
2019-02-14T00:49:12.117Z,1022.98
2019-02-14T00:50:12.104Z,1022.98
2019-02-14T00:51:12.092Z,1022.97
2019-02-14T00:52:12.079Z,1022.89
2019-02-14T00:53:12.088Z,1022.92
2019-02-14T00:54:12.055Z,1022.93
2019-02-14T00:55:12.046Z,1022.97
2019-02-14T00:56:12.035Z,1022.98
2019-02-14T00:57:12.023Z,1023.00
2019-02-14T00:58:12.029Z,1022.99
2019-02-14T00:59:11.999Z,1022.96
2019-02-14T01:00:11.988Z,1022.99
2019-02-14T01:01:11.977Z,1023.02
2019-02-14T01:02:11.964Z,1022.97
2019-02-14T01:03:11.971Z,1022.95
2019-02-14T01:04:11.946Z,1022.97
2019-02-14T01:05:11.928Z,1022.94
2019-02-14T01:06:11.920Z,1022.94
2019-02-14T01:07:11.907Z,1022.93
2019-02-14T01:08:11.913Z,1022.86
2019-02-14T01:09:11.882Z,1022.92
2019-02-14T01:10:11.870Z,1022.90
2019-02-14T01:11:11.859Z,1022.87
2019-02-14T01:12:11.845Z,1022.90
2019-02-14T01:13:11.864Z,1022.86
2019-02-14T01:14:11.879Z,1022.83
2019-02-14T01:15:11.819Z,1022.86
2019-02-14T01:16:11.802Z,1022.89
2019-02-14T01:17:11.786Z,1022.85
2019-02-14T01:18:11.774Z,1022.89
2019-02-14T01:19:11.781Z,1022.84
2019-02-14T01:20:11.749Z,1022.86
2019-02-14T01:21:11.739Z,1022.89
2019-02-14T01:22:11.730Z,1022.87
2019-02-14T01:23:11.714Z,1022.81
2019-02-14T01:24:11.721Z,1022.82
2019-02-14T01:25:11.692Z,1022.74
2019-02-14T01:26:11.680Z,1022.77
2019-02-14T01:27:11.666Z,1022.80
2019-02-14T01:28:11.655Z,1022.79
2019-02-14T01:29:11.663Z,1022.73
2019-02-14T01:30:11.631Z,1022.78
2019-02-14T01:31:11.621Z,1022.82
2019-02-14T01:32:11.619Z,1022.83
2019-02-14T01:33:11.599Z,1022.85
2019-02-14T01:34:11.643Z,1022.81
2019-02-14T01:35:11.573Z,1022.86
2019-02-14T01:36:11.562Z,1022.76
2019-02-14T01:37:11.549Z,1022.77
2019-02-14T01:38:11.537Z,1022.79
2019-02-14T01:39:11.541Z,1022.80
2019-02-14T01:40:11.513Z,1022.79
2019-02-14T01:41:11.501Z,1022.80
2019-02-14T01:42:11.490Z,1022.80
2019-02-14T01:43:11.478Z,1022.83
2019-02-14T01:44:11.488Z,1022.83
2019-02-14T01:45:11.455Z,1022.76
2019-02-14T01:46:11.443Z,1022.72
2019-02-14T01:47:11.436Z,1022.68
2019-02-14T01:48:11.421Z,1022.71
2019-02-14T01:49:11.429Z,1022.74
2019-02-14T01:50:11.397Z,1022.75
2019-02-14T01:51:11.385Z,1022.76
2019-02-14T01:52:11.373Z,1022.77
2019-02-14T01:53:11.362Z,1022.74
2019-02-14T01:54:11.391Z,1022.73
2019-02-14T01:55:11.339Z,1022.74
2019-02-14T01:56:11.327Z,1022.76
2019-02-14T01:57:11.315Z,1022.75
2019-02-14T01:58:11.306Z,1022.73
2019-02-14T01:59:11.292Z,1022.71
2019-02-14T02:00:11.306Z,1022.68
2019-02-14T02:01:11.269Z,1022.68
2019-02-14T02:02:11.258Z,1022.66
2019-02-14T02:03:11.245Z,1022.62
2019-02-14T02:04:11.236Z,1022.60
2019-02-14T02:05:11.242Z,1022.58
2019-02-14T02:06:11.214Z,1022.59
2019-02-14T02:07:11.203Z,1022.59
2019-02-14T02:08:11.190Z,1022.57
2019-02-14T02:09:11.178Z,1022.57
2019-02-14T02:10:11.185Z,1022.56
2019-02-14T02:11:11.162Z,1022.59
2019-02-14T02:12:11.143Z,1022.60
2019-02-14T02:13:11.133Z,1022.56
2019-02-14T02:14:11.121Z,1022.68
2019-02-14T02:15:11.127Z,1022.65
2019-02-14T02:16:11.100Z,1022.63
2019-02-14T02:17:11.086Z,1022.66
2019-02-14T02:18:11.075Z,1022.64
2019-02-14T02:19:11.062Z,1022.60
2019-02-14T02:20:11.068Z,1022.60
2019-02-14T02:21:11.041Z,1022.58
2019-02-14T02:22:11.028Z,1022.62
2019-02-14T02:23:11.018Z,1022.62
2019-02-14T02:24:11.025Z,1022.61
2019-02-14T02:25:10.995Z,1022.65
2019-02-14T02:26:10.984Z,1022.63
2019-02-14T02:27:10.972Z,1022.66
2019-02-14T02:28:10.960Z,1022.62
2019-02-14T02:29:10.974Z,1022.67
2019-02-14T02:30:10.939Z,1022.64
2019-02-14T02:31:10.932Z,1022.64
2019-02-14T02:32:10.913Z,1022.66
2019-02-14T02:33:10.901Z,1022.71
2019-02-14T02:34:10.890Z,1022.69
2019-02-14T02:35:10.895Z,1022.72
2019-02-14T02:36:10.865Z,1022.74
2019-02-14T02:37:10.857Z,1022.76
2019-02-14T02:38:10.842Z,1022.71
2019-02-14T02:39:10.831Z,1022.73
2019-02-14T02:40:10.835Z,1022.72
2019-02-14T02:41:10.814Z,1022.69
2019-02-14T02:42:10.795Z,1022.69
2019-02-14T02:43:10.782Z,1022.72
2019-02-14T02:44:10.770Z,1022.69
2019-02-14T02:45:10.787Z,1022.64
2019-02-14T02:46:10.745Z,1022.60
2019-02-14T02:47:10.761Z,1022.69
2019-02-14T02:48:10.724Z,1022.66
2019-02-14T02:49:10.712Z,1022.67
2019-02-14T02:50:10.704Z,1022.73
2019-02-14T02:51:10.705Z,1022.64
2019-02-14T02:52:10.677Z,1022.65
2019-02-14T02:53:10.665Z,1022.69
2019-02-14T02:54:10.654Z,1022.67
2019-02-14T02:55:10.653Z,1022.68
2019-02-14T02:56:10.653Z,1022.67
2019-02-14T02:57:10.623Z,1022.68
2019-02-14T02:58:10.609Z,1022.62
2019-02-14T02:59:10.596Z,1022.68
2019-02-14T03:00:10.586Z,1022.66
2019-02-14T03:01:10.572Z,1022.67
2019-02-14T03:02:10.582Z,1022.68
2019-02-14T03:03:10.548Z,1022.68
2019-02-14T03:04:10.535Z,1022.68
2019-02-14T03:05:10.524Z,1022.71
2019-02-14T03:06:11.031Z,1022.64
2019-02-14T03:07:10.520Z,1022.66
2019-02-14T03:08:10.497Z,1022.66
2019-02-14T03:09:10.482Z,1022.64
2019-02-14T03:10:10.468Z,1022.65
2019-02-14T03:11:10.453Z,1022.64
2019-02-14T03:12:10.458Z,1022.62
2019-02-14T03:13:10.429Z,1022.70
2019-02-14T03:14:10.420Z,1022.65
2019-02-14T03:15:10.405Z,1022.65
2019-02-14T03:16:10.392Z,1022.63
2019-02-14T03:17:10.401Z,1022.67
2019-02-14T03:18:10.370Z,1022.66
2019-02-14T03:19:10.359Z,1022.62
2019-02-14T03:20:10.352Z,1022.65
2019-02-14T03:21:10.340Z,1022.67
2019-02-14T03:22:10.357Z,1022.63
2019-02-14T03:23:10.314Z,1022.64
2019-02-14T03:24:10.304Z,1022.66
2019-02-14T03:25:10.292Z,1022.67
2019-02-14T03:26:10.281Z,1022.63
2019-02-14T03:27:10.268Z,1022.64
2019-02-14T03:28:10.276Z,1022.60
2019-02-14T03:29:10.246Z,1022.64
2019-02-14T03:30:10.236Z,1022.59
2019-02-14T03:31:10.225Z,1022.63
2019-02-14T03:32:10.216Z,1022.66
2019-02-14T03:33:10.219Z,1022.67
2019-02-14T03:34:10.194Z,1022.65
2019-02-14T03:35:10.181Z,1022.68
2019-02-14T03:36:18.418Z,1022.66
2019-02-14T03:37:11.155Z,1022.72
2019-02-14T03:38:10.161Z,1022.73
2019-02-14T03:39:10.136Z,1022.69
2019-02-14T03:40:10.123Z,1022.71
2019-02-14T03:41:10.110Z,1022.75
2019-02-14T03:42:10.100Z,1022.78
2019-02-14T03:43:10.133Z,1022.75
2019-02-14T03:44:10.077Z,1022.75
2019-02-14T03:45:10.066Z,1022.72
2019-02-14T03:46:10.054Z,1022.73
2019-02-14T03:47:10.043Z,1022.71
2019-02-14T03:48:10.032Z,1022.76
2019-02-14T03:49:10.040Z,1022.72
2019-02-14T03:50:10.013Z,1022.70
2019-02-14T03:51:10.006Z,1022.73
2019-02-14T03:52:09.994Z,1022.68
2019-02-14T03:53:09.974Z,1022.77
2019-02-14T03:54:09.981Z,1022.74
2019-02-14T03:55:09.950Z,1022.74
2019-02-14T03:56:09.938Z,1022.73
2019-02-14T03:57:09.930Z,1022.75
2019-02-14T03:58:09.917Z,1022.81
2019-02-14T03:59:09.943Z,1022.79
2019-02-14T04:00:09.893Z,1022.77
2019-02-14T04:01:09.882Z,1022.76
2019-02-14T04:02:09.870Z,1022.73
2019-02-14T04:03:09.857Z,1022.68
2019-02-14T04:04:09.847Z,1022.73
2019-02-14T04:05:09.856Z,1022.72
2019-02-14T04:06:09.827Z,1022.71
2019-02-14T04:07:09.814Z,1022.66
2019-02-14T04:08:09.802Z,1022.68
2019-02-14T04:09:09.789Z,1022.65
2019-02-14T04:10:09.819Z,1022.69
2019-02-14T04:11:09.765Z,1022.67
2019-02-14T04:12:09.754Z,1022.68
2019-02-14T04:13:09.745Z,1022.68
2019-02-14T04:14:09.741Z,1022.64
2019-02-14T04:15:09.720Z,1022.67
2019-02-14T04:16:09.726Z,1022.65
2019-02-14T04:17:09.698Z,1022.61
2019-02-14T04:18:09.687Z,1022.67
2019-02-14T04:19:09.674Z,1022.67
2019-02-14T04:20:09.666Z,1022.65
2019-02-14T04:21:09.675Z,1022.69
2019-02-14T04:22:09.639Z,1022.68
2019-02-14T04:23:09.628Z,1022.71
2019-02-14T04:24:09.616Z,1022.70
2019-02-14T04:25:09.606Z,1022.62
2019-02-14T04:26:09.593Z,1022.71
2019-02-14T04:27:09.605Z,1022.66
2019-02-14T04:28:09.571Z,1022.73
2019-02-14T04:29:09.559Z,1022.71
2019-02-14T04:30:09.549Z,1022.76
2019-02-14T04:31:09.537Z,1022.72
2019-02-14T04:32:09.543Z,1022.73
2019-02-14T04:33:09.518Z,1022.79
2019-02-14T04:34:09.502Z,1022.74
2019-02-14T04:35:09.500Z,1022.73
2019-02-14T04:36:09.483Z,1022.81
2019-02-14T04:37:09.490Z,1022.77
2019-02-14T04:38:09.459Z,1022.74
2019-02-14T04:39:09.446Z,1022.78
2019-02-14T04:40:09.435Z,1022.77
2019-02-14T04:41:09.424Z,1022.76
2019-02-14T04:42:09.434Z,1022.81
2019-02-14T04:43:09.411Z,1022.79
2019-02-14T04:44:09.391Z,1022.79
2019-02-14T04:45:09.379Z,1022.73
2019-02-14T04:46:09.370Z,1022.78
2019-02-14T04:47:09.382Z,1022.73
2019-02-14T04:48:09.345Z,1022.72
2019-02-14T04:49:09.334Z,1022.75
2019-02-14T04:50:09.323Z,1022.73
2019-02-14T04:51:09.311Z,1022.76
2019-02-14T04:52:09.303Z,1022.74
2019-02-14T04:53:09.308Z,1022.74
2019-02-14T04:54:09.277Z,1022.76
2019-02-14T04:55:09.265Z,1022.76
2019-02-14T04:56:09.261Z,1022.77
2019-02-14T04:57:09.253Z,1022.77
2019-02-14T04:58:09.274Z,1022.85
2019-02-14T04:59:09.220Z,1022.83
2019-02-14T05:00:09.210Z,1022.93
2019-02-14T05:01:09.199Z,1022.96
2019-02-14T05:02:09.186Z,1022.94
2019-02-14T05:03:09.203Z,1023.00
2019-02-14T05:04:09.184Z,1023.00
2019-02-14T05:05:09.154Z,1023.07
2019-02-14T05:06:09.144Z,1023.06
2019-02-14T05:07:09.130Z,1022.99
2019-02-14T05:08:09.137Z,1023.08
2019-02-14T05:09:09.111Z,1023.07
2019-02-14T05:10:09.101Z,1023.05
2019-02-14T05:11:09.085Z,1023.05
2019-02-14T05:12:09.078Z,1023.04
2019-02-14T05:13:09.085Z,1023.05
2019-02-14T05:14:09.051Z,1023.08
2019-02-14T05:15:09.043Z,1023.01
2019-02-14T05:16:09.035Z,1023.05
2019-02-14T05:17:09.017Z,1023.10
2019-02-14T05:18:09.006Z,1023.04
2019-02-14T05:19:09.012Z,1023.06
2019-02-14T05:20:08.985Z,1023.00
2019-02-14T05:21:08.975Z,1023.03
2019-02-14T05:22:08.962Z,1023.03
2019-02-14T05:23:08.950Z,1023.00
2019-02-14T05:24:08.961Z,1022.99
2019-02-14T05:25:08.930Z,1023.05
2019-02-14T05:26:08.919Z,1023.01
2019-02-14T05:27:08.905Z,1023.01
2019-02-14T05:28:08.897Z,1023.01
2019-02-14T05:29:08.907Z,1023.04
2019-02-14T05:30:08.874Z,1023.07
2019-02-14T05:31:08.865Z,1023.01
2019-02-14T05:32:08.849Z,1023.05
2019-02-14T05:33:08.838Z,1022.99
2019-02-14T05:34:08.846Z,1023.06
2019-02-14T05:35:08.815Z,1023.01
2019-02-14T05:36:08.806Z,1023.06
2019-02-14T05:37:08.798Z,1023.08
2019-02-14T05:38:08.782Z,1023.05
2019-02-14T05:39:08.788Z,1023.10
2019-02-14T05:40:08.760Z,1023.12
2019-02-14T05:41:08.745Z,1023.10
2019-02-14T05:42:08.739Z,1023.12
2019-02-14T05:43:08.727Z,1023.14
2019-02-14T05:44:08.737Z,1023.11
2019-02-14T05:45:08.703Z,1023.14
2019-02-14T05:46:08.698Z,1023.07
2019-02-14T05:47:08.679Z,1023.09
2019-02-14T05:48:08.667Z,1023.11
2019-02-14T05:49:08.674Z,1023.11
2019-02-14T05:50:08.659Z,1023.12
2019-02-14T05:51:08.633Z,1023.13
2019-02-14T05:52:08.628Z,1023.14
2019-02-14T05:53:08.610Z,1023.12
2019-02-14T05:54:08.619Z,1023.12
2019-02-14T05:55:08.588Z,1023.11
2019-02-14T05:56:08.580Z,1023.10
2019-02-14T05:57:08.564Z,1023.11
2019-02-14T05:58:08.555Z,1023.16
2019-02-14T05:59:08.561Z,1023.17
2019-02-14T06:00:08.530Z,1023.22
2019-02-14T06:01:08.517Z,1023.21
2019-02-14T06:02:08.509Z,1023.23
2019-02-14T06:03:08.499Z,1023.21
2019-02-14T06:04:08.503Z,1023.19
2019-02-14T06:05:08.474Z,1023.19
2019-02-14T06:06:08.462Z,1023.18
2019-02-14T06:07:08.452Z,1023.23
2019-02-14T06:08:08.439Z,1023.23
2019-02-14T06:09:08.447Z,1023.28
2019-02-14T06:10:08.422Z,1023.30
2019-02-14T06:11:08.404Z,1023.27
2019-02-14T06:12:08.395Z,1023.28
2019-02-14T06:13:08.382Z,1023.33
2019-02-14T06:14:08.394Z,1023.40
2019-02-14T06:15:08.360Z,1023.42
2019-02-14T06:16:08.347Z,1023.43
2019-02-14T06:17:08.337Z,1023.40
2019-02-14T06:18:08.325Z,1023.45
2019-02-14T06:19:08.334Z,1023.43
2019-02-14T06:20:08.305Z,1023.41
2019-02-14T06:21:08.292Z,1023.48
2019-02-14T06:22:08.281Z,1023.40
2019-02-14T06:23:08.274Z,1023.40
2019-02-14T06:24:08.281Z,1023.40
2019-02-14T06:25:08.258Z,1023.37
2019-02-14T06:26:08.244Z,1023.34
2019-02-14T06:27:08.225Z,1023.35
2019-02-14T06:28:08.213Z,1023.35
2019-02-14T06:29:08.201Z,1023.35
2019-02-14T06:30:08.209Z,1023.39
2019-02-14T06:31:08.180Z,1023.42
2019-02-14T06:32:08.171Z,1023.39
2019-02-14T06:33:08.156Z,1023.43
2019-02-14T06:34:08.146Z,1023.46
2019-02-14T06:35:08.177Z,1023.46
2019-02-14T06:36:08.124Z,1023.48
2019-02-14T06:37:09.925Z,1023.50
2019-02-14T06:38:08.101Z,1023.59
2019-02-14T06:39:08.090Z,1023.57
2019-02-14T06:40:08.081Z,1023.60
2019-02-14T06:41:08.088Z,1023.58
2019-02-14T06:42:08.058Z,1023.58
2019-02-14T06:43:08.048Z,1023.59
2019-02-14T06:44:08.035Z,1023.58
2019-02-14T06:45:08.024Z,1023.60
2019-02-14T06:46:08.028Z,1023.57
2019-02-14T06:47:08.000Z,1023.58
2019-02-14T06:48:07.989Z,1023.59
2019-02-14T06:49:07.981Z,1023.62
2019-02-14T06:50:07.965Z,1023.65
2019-02-14T06:51:07.994Z,1023.62
2019-02-14T06:52:07.942Z,1023.58
2019-02-14T06:53:07.930Z,1023.66
2019-02-14T06:54:07.919Z,1023.64
2019-02-14T06:55:07.909Z,1023.65
2019-02-14T06:56:07.901Z,1023.64
2019-02-14T06:57:07.906Z,1023.66
2019-02-14T06:58:07.875Z,1023.67
2019-02-14T06:59:07.862Z,1023.69
2019-02-14T07:00:07.855Z,1023.66
2019-02-14T07:01:07.862Z,1023.67
2019-02-14T07:02:07.829Z,1023.77
2019-02-14T07:03:07.818Z,1023.76
2019-02-14T07:04:07.808Z,1023.77
2019-02-14T07:05:07.795Z,1023.80
2019-02-14T07:06:07.804Z,1023.77
2019-02-14T07:07:07.773Z,1023.80
2019-02-14T07:08:07.761Z,1023.87
2019-02-14T07:09:07.754Z,1023.87
2019-02-14T07:10:07.739Z,1023.88
2019-02-14T07:11:07.749Z,1023.88
2019-02-14T07:12:07.718Z,1023.86
2019-02-14T07:13:07.708Z,1023.92
2019-02-14T07:14:07.694Z,1023.88
2019-02-14T07:15:07.683Z,1023.87
2019-02-14T07:16:09.547Z,1023.82
2019-02-14T07:17:07.662Z,1023.84
2019-02-14T07:18:07.648Z,1023.80
2019-02-14T07:19:07.640Z,1023.78
2019-02-14T07:20:07.629Z,1023.81
2019-02-14T07:21:07.634Z,1023.77
2019-02-14T07:22:07.605Z,1023.76
2019-02-14T07:23:07.594Z,1023.71
2019-02-14T07:24:07.582Z,1023.74
2019-02-14T07:25:07.572Z,1023.74
2019-02-14T07:26:07.582Z,1023.76
2019-02-14T07:27:07.546Z,1023.76
2019-02-14T07:28:07.538Z,1023.69
2019-02-14T07:29:07.526Z,1023.77
2019-02-14T07:30:07.513Z,1023.74
2019-02-14T07:31:07.521Z,1023.76
2019-02-14T07:32:07.490Z,1023.83
2019-02-14T07:33:07.479Z,1023.79
2019-02-14T07:34:07.472Z,1023.83
2019-02-14T07:35:07.459Z,1023.81
2019-02-14T07:36:07.472Z,1023.76
2019-02-14T07:37:07.434Z,1023.83
2019-02-14T07:38:07.428Z,1023.83
2019-02-14T07:39:07.414Z,1023.85
2019-02-14T07:40:07.399Z,1023.87
2019-02-14T07:41:07.389Z,1023.91
2019-02-14T07:42:07.395Z,1023.88
2019-02-14T07:43:07.365Z,1023.90
2019-02-14T07:44:07.354Z,1023.89
2019-02-14T07:45:07.342Z,1023.89
2019-02-14T07:46:07.332Z,1023.89
2019-02-14T07:47:07.338Z,1023.91
2019-02-14T07:48:07.311Z,1023.91
2019-02-14T07:49:07.299Z,1023.86
2019-02-14T07:50:07.286Z,1023.80
2019-02-14T07:51:07.274Z,1023.79
2019-02-14T07:52:07.285Z,1023.81
2019-02-14T07:53:07.254Z,1023.82
2019-02-14T07:54:07.246Z,1023.78
2019-02-14T07:55:07.282Z,1023.84
2019-02-14T07:56:07.219Z,1023.87
2019-02-14T07:57:07.207Z,1023.86
2019-02-14T07:58:07.214Z,1023.80
2019-02-14T07:59:07.193Z,1023.80
2019-02-14T08:00:07.173Z,1023.77
2019-02-14T08:01:07.161Z,1023.87
2019-02-14T08:02:07.151Z,1023.85
2019-02-14T08:03:07.163Z,1023.92
2019-02-14T08:04:07.129Z,1023.94
2019-02-14T08:05:07.117Z,1023.95
2019-02-14T08:06:07.105Z,1023.99
2019-02-14T08:07:07.093Z,1024.04
2019-02-14T08:08:07.083Z,1023.96
2019-02-14T08:09:07.087Z,1023.97
2019-02-14T08:10:07.057Z,1023.84
2019-02-14T08:11:07.049Z,1023.89
2019-02-14T08:12:07.036Z,1023.82
2019-02-14T08:13:07.022Z,1023.92
2019-02-14T08:14:07.030Z,1023.83
2019-02-14T08:15:06.999Z,1023.82
2019-02-14T08:16:06.987Z,1023.77
2019-02-14T08:17:06.975Z,1023.76
2019-02-14T08:18:06.969Z,1023.78
2019-02-14T08:19:06.971Z,1023.72
2019-02-14T08:20:06.939Z,1023.72
2019-02-14T08:21:06.929Z,1023.69
2019-02-14T08:22:06.916Z,1023.69
2019-02-14T08:23:06.905Z,1023.64
2019-02-14T08:24:06.921Z,1023.59
2019-02-14T08:25:06.882Z,1023.62
2019-02-14T08:26:10.744Z,1023.61
2019-02-14T08:27:06.860Z,1023.64
2019-02-14T08:28:06.846Z,1023.71
2019-02-14T08:29:06.833Z,1023.70
2019-02-14T08:30:06.864Z,1023.77
2019-02-14T08:31:06.813Z,1023.71
2019-02-14T08:32:06.799Z,1023.68
2019-02-14T08:33:06.787Z,1023.73
2019-02-14T08:34:06.775Z,1023.69
2019-02-14T08:35:06.868Z,1023.75
2019-02-14T08:36:06.752Z,1023.83
2019-02-14T08:37:06.742Z,1023.87
2019-02-14T08:38:06.732Z,1023.85
2019-02-14T08:39:06.736Z,1023.84
2019-02-14T08:40:06.706Z,1023.89
2019-02-14T08:41:06.694Z,1023.89
2019-02-14T08:42:06.682Z,1023.85
2019-02-14T08:43:06.670Z,1023.84
2019-02-14T08:44:06.675Z,1023.75
2019-02-14T08:45:06.647Z,1023.69
2019-02-14T08:46:06.637Z,1023.64
2019-02-14T08:47:06.625Z,1023.68
2019-02-14T08:48:06.615Z,1023.79
2019-02-14T08:49:06.626Z,1023.81
2019-02-14T08:50:06.589Z,1023.71
2019-02-14T08:51:06.576Z,1023.66
2019-02-14T08:52:06.566Z,1023.68
2019-02-14T08:53:06.555Z,1023.59
2019-02-14T08:54:06.583Z,1023.67
2019-02-14T08:55:06.530Z,1023.67
2019-02-14T08:56:06.535Z,1023.64
2019-02-14T08:57:06.510Z,1023.69
2019-02-14T08:58:06.508Z,1023.73
2019-02-14T08:59:06.482Z,1023.84
2019-02-14T09:00:06.494Z,1023.86
2019-02-14T09:01:06.458Z,1023.88
2019-02-14T09:02:06.447Z,1023.89
2019-02-14T09:03:06.439Z,1023.90
2019-02-14T09:04:06.425Z,1023.82
2019-02-14T09:05:06.413Z,1023.80
2019-02-14T09:06:06.420Z,1023.82
2019-02-14T09:07:06.387Z,1023.94
2019-02-14T09:08:06.377Z,1023.88
2019-02-14T09:09:06.365Z,1023.83
2019-02-14T09:10:06.353Z,1023.86
2019-02-14T09:11:06.371Z,1023.76
2019-02-14T09:12:06.334Z,1023.71
2019-02-14T09:13:06.321Z,1023.78
2019-02-14T09:14:06.307Z,1023.79
2019-02-14T09:15:06.295Z,1023.76
2019-02-14T09:16:06.304Z,1023.79
2019-02-14T09:17:06.285Z,1023.77
2019-02-14T09:18:07.838Z,1023.82
2019-02-14T09:19:06.249Z,1023.84
2019-02-14T09:20:06.240Z,1023.78
2019-02-14T09:21:06.246Z,1023.76
2019-02-14T09:22:06.214Z,1023.73
2019-02-14T09:23:06.207Z,1023.79
2019-02-14T09:24:06.190Z,1023.82
2019-02-14T09:25:06.179Z,1023.84
2019-02-14T09:26:06.190Z,1023.79
2019-02-14T09:27:06.157Z,1023.77
2019-02-14T09:28:06.144Z,1023.75
2019-02-14T09:29:06.135Z,1023.78
2019-02-14T09:30:06.122Z,1023.78
2019-02-14T09:31:06.110Z,1023.79
2019-02-14T09:32:06.121Z,1023.81
2019-02-14T09:33:06.086Z,1023.84
2019-02-14T09:34:06.075Z,1023.86
2019-02-14T09:35:06.062Z,1023.96
2019-02-14T09:36:06.051Z,1023.88
2019-02-14T09:37:06.039Z,1023.86
2019-02-14T09:38:06.044Z,1023.91
2019-02-14T09:39:06.014Z,1023.98
2019-02-14T09:40:06.003Z,1023.93
2019-02-14T09:41:05.995Z,1024.01
2019-02-14T09:42:05.981Z,1023.99
2019-02-14T09:43:05.990Z,1023.90
2019-02-14T09:44:05.957Z,1024.03
2019-02-14T09:45:05.960Z,1023.98
2019-02-14T09:46:05.936Z,1023.96
2019-02-14T09:47:05.920Z,1023.86
2019-02-14T09:48:05.924Z,1023.93
2019-02-14T09:49:05.920Z,1024.00
2019-02-14T09:50:05.887Z,1023.98
2019-02-14T09:51:05.876Z,1024.05
2019-02-14T09:52:05.916Z,1024.01
2019-02-14T09:53:05.850Z,1023.97
2019-02-14T09:54:05.860Z,1023.89
2019-02-14T09:55:05.827Z,1023.85
2019-02-14T09:56:05.816Z,1023.83
2019-02-14T09:57:05.804Z,1023.84
2019-02-14T09:58:05.806Z,1023.87
2019-02-14T09:59:05.815Z,1023.83
2019-02-14T10:00:05.803Z,1023.83
2019-02-14T10:01:05.759Z,1023.88
2019-02-14T10:02:05.745Z,1023.89
2019-02-14T10:03:05.733Z,1023.93
2019-02-14T10:04:05.722Z,1023.96
2019-02-14T10:05:05.735Z,1023.97
2019-02-14T10:06:05.709Z,1023.95
2019-02-14T10:07:05.691Z,1023.94
2019-02-14T10:08:12.515Z,1023.91
2019-02-14T10:09:06.682Z,1023.87
2019-02-14T10:10:05.660Z,1023.76
2019-02-14T10:11:05.672Z,1023.83
2019-02-14T10:12:05.627Z,1023.85
2019-02-14T10:13:05.613Z,1023.92
2019-02-14T10:14:05.603Z,1023.93
2019-02-14T10:15:05.590Z,1024.01
2019-02-14T10:16:05.597Z,1024.02
2019-02-14T10:17:05.568Z,1023.97
2019-02-14T10:18:05.559Z,1023.81
2019-02-14T10:19:05.543Z,1023.93
2019-02-14T10:20:05.532Z,1023.92
2019-02-14T10:21:05.539Z,1023.95
2019-02-14T10:22:05.509Z,1023.97
2019-02-14T10:23:05.495Z,1024.02
2019-02-14T10:24:05.483Z,1023.97
2019-02-14T10:25:05.472Z,1023.96
2019-02-14T10:26:05.483Z,1024.01
2019-02-14T10:27:05.449Z,1024.02
2019-02-14T10:28:05.444Z,1023.90
2019-02-14T10:29:05.428Z,1023.87
2019-02-14T10:30:05.416Z,1023.87
2019-02-14T10:31:05.401Z,1023.81
2019-02-14T10:32:05.410Z,1023.82
2019-02-14T10:33:05.381Z,1023.94
2019-02-14T10:34:05.367Z,1023.99
2019-02-14T10:35:05.444Z,1023.97
2019-02-14T10:36:05.361Z,1023.97
2019-02-14T10:37:05.354Z,1023.97
2019-02-14T10:38:05.320Z,1023.98
2019-02-14T10:39:05.314Z,1023.94
2019-02-14T10:40:05.298Z,1023.95
2019-02-14T10:41:05.284Z,1023.95
2019-02-14T10:42:05.274Z,1023.92
2019-02-14T10:43:05.281Z,1023.94
2019-02-14T10:44:05.250Z,1023.86
2019-02-14T10:45:05.240Z,1023.87
2019-02-14T10:46:05.227Z,1023.95
2019-02-14T10:47:05.215Z,1023.81
2019-02-14T10:48:05.222Z,1023.85
2019-02-14T10:49:05.191Z,1023.79
2019-02-14T10:50:05.181Z,1023.78
2019-02-14T10:51:05.167Z,1023.71
2019-02-14T10:52:05.160Z,1023.78
2019-02-14T10:53:05.170Z,1023.83
2019-02-14T10:54:05.133Z,1023.84
2019-02-14T10:55:05.122Z,1023.86
2019-02-14T10:56:05.108Z,1023.84
2019-02-14T10:57:05.098Z,1023.81
2019-02-14T10:58:05.085Z,1023.82
2019-02-14T10:59:05.092Z,1023.80
2019-02-14T11:00:05.067Z,1023.69
2019-02-14T11:01:05.051Z,1023.81
2019-02-14T11:02:05.038Z,1023.84
2019-02-14T11:03:05.029Z,1023.83
2019-02-14T11:04:05.035Z,1023.77
2019-02-14T11:05:05.008Z,1023.78
2019-02-14T11:06:04.993Z,1023.76
2019-02-14T11:07:04.982Z,1023.72
2019-02-14T11:08:04.970Z,1023.70
2019-02-14T11:09:04.981Z,1023.68
2019-02-14T11:10:04.945Z,1023.72
2019-02-14T11:11:04.935Z,1023.65
2019-02-14T11:12:04.924Z,1023.68
2019-02-14T11:13:04.911Z,1023.68
2019-02-14T11:14:04.899Z,1023.71
2019-02-14T11:15:04.923Z,1023.70
2019-02-14T11:16:04.876Z,1023.72
2019-02-14T11:17:04.865Z,1023.67
2019-02-14T11:18:04.853Z,1023.71
2019-02-14T11:19:04.842Z,1023.70
2019-02-14T11:20:04.831Z,1023.70
2019-02-14T11:21:04.839Z,1023.64
2019-02-14T11:22:04.808Z,1023.57
2019-02-14T11:23:04.797Z,1023.63
2019-02-14T11:24:04.787Z,1023.58
2019-02-14T11:25:04.775Z,1023.54
2019-02-14T11:26:04.782Z,1023.51
2019-02-14T11:27:04.751Z,1023.53
2019-02-14T11:28:04.741Z,1023.52
2019-02-14T11:29:04.737Z,1023.47
2019-02-14T11:30:04.726Z,1023.54
2019-02-14T11:31:04.749Z,1023.58
2019-02-14T11:32:04.699Z,1023.57
2019-02-14T11:33:04.683Z,1023.35
2019-02-14T11:34:04.670Z,1023.36
2019-02-14T11:35:04.751Z,1023.38
2019-02-14T11:36:04.689Z,1023.43
2019-02-14T11:37:04.640Z,1023.48
2019-02-14T11:38:04.627Z,1023.42
2019-02-14T11:39:04.619Z,1023.49
2019-02-14T11:40:04.605Z,1023.45
2019-02-14T11:41:04.591Z,1023.45
2019-02-14T11:42:04.601Z,1023.41
2019-02-14T11:43:04.570Z,1023.46
2019-02-14T11:44:04.558Z,1023.45
2019-02-14T11:45:04.547Z,1023.58
2019-02-14T11:46:04.533Z,1023.59
2019-02-14T11:47:04.542Z,1023.59
2019-02-14T11:48:04.512Z,1023.64
2019-02-14T11:49:04.501Z,1023.64
2019-02-14T11:50:06.488Z,1023.61
2019-02-14T11:51:04.477Z,1023.54
2019-02-14T11:52:04.485Z,1023.51
2019-02-14T11:53:13.835Z,1023.51
2019-02-14T11:54:05.441Z,1023.56
2019-02-14T11:55:04.431Z,1023.58
2019-02-14T11:56:04.419Z,1023.58
2019-02-14T11:57:04.425Z,1023.52
2019-02-14T11:58:04.395Z,1023.52
2019-02-14T11:59:04.385Z,1023.49
2019-02-14T12:00:04.372Z,1023.42
2019-02-14T12:01:04.361Z,1023.39
2019-02-14T12:02:04.367Z,1023.36
2019-02-14T12:03:04.340Z,1023.45
2019-02-14T12:04:04.328Z,1023.46
2019-02-14T12:05:04.315Z,1023.37